sensor_id;sensor_type;location;lat;lon;timestamp;P1;durP1;ratioP1;P2;durP2;ratioP2
79135;SDS011;68533;51.090;17.216;2023-10-13T00:00:56;4.28;;;2.55;;
79135;SDS011;68533;51.090;17.216;2023-10-13T00:03:36;9.30;;;2.28;;
79135;SDS011;68533;51.090;17.216;2023-10-13T00:06:03;3.72;;;2.83;;
79135;SDS011;68533;51.090;17.216;2023-10-13T00:08:29;7.65;;;2.28;;
79135;SDS011;68533;51.090;17.216;2023-10-13T00:10:56;4.65;;;2.08;;
79135;SDS011;68533;51.090;17.216;2023-10-13T00:13:28;13.13;;;3.22;;
79135;SDS011;68533;51.090;17.216;2023-10-13T00:16:13;5.05;;;2.60;;
79135;SDS011;68533;51.090;17.216;2023-10-13T00:18:42;6.00;;;2.47;;
79135;SDS011;68533;51.090;17.216;2023-10-13T00:21:10;6.13;;;2.90;;
79135;SDS011;68533;51.090;17.216;2023-10-13T00:23:41;5.47;;;2.90;;
79135;SDS011;68533;51.090;17.216;2023-10-13T00:26:21;6.25;;;2.78;;
79135;SDS011;68533;51.090;17.216;2023-10-13T00:31:27;3.85;;;2.67;;
79135;SDS011;68533;51.090;17.216;2023-10-13T00:33:59;4.53;;;2.97;;
79135;SDS011;68533;51.090;17.216;2023-10-13T00:36:44;3.67;;;3.00;;
79135;SDS011;68533;51.090;17.216;2023-10-13T00:39:28;6.57;;;3.00;;
79135;SDS011;68533;51.090;17.216;2023-10-13T00:41:54;11.85;;;2.97;;
79135;SDS011;68533;51.090;17.216;2023-10-13T00:44:26;5.32;;;3.20;;
79135;SDS011;68533;51.090;17.216;2023-10-13T00:47:04;6.30;;;2.60;;
79135;SDS011;68533;51.090;17.216;2023-10-13T00:49:33;8.70;;;3.00;;
79135;SDS011;68533;51.090;17.216;2023-10-13T00:52:05;4.25;;;2.28;;
79135;SDS011;68533;51.090;17.216;2023-10-13T00:54:35;5.72;;;2.20;;
79135;SDS011;68533;51.090;17.216;2023-10-13T00:57:03;7.25;;;4.07;;
79135;SDS011;68533;51.090;17.216;2023-10-13T00:59:52;2.83;;;2.15;;
79135;SDS011;68533;51.090;17.216;2023-10-13T01:02:23;5.45;;;2.03;;
79135;SDS011;68533;51.090;17.216;2023-10-13T01:05:01;5.50;;;2.00;;
79135;SDS011;68533;51.090;17.216;2023-10-13T01:07:29;3.80;;;2.28;;
79135;SDS011;68533;51.090;17.216;2023-10-13T01:09:54;5.25;;;2.05;;
79135;SDS011;68533;51.090;17.216;2023-10-13T01:12:21;6.00;;;2.50;;
79135;SDS011;68533;51.090;17.216;2023-10-13T01:14:48;3.10;;;1.92;;
79135;SDS011;68533;51.090;17.216;2023-10-13T01:17:16;9.63;;;2.65;;
79135;SDS011;68533;51.090;17.216;2023-10-13T01:19:42;4.63;;;2.50;;
79135;SDS011;68533;51.090;17.216;2023-10-13T01:22:09;6.95;;;3.08;;
79135;SDS011;68533;51.090;17.216;2023-10-13T01:24:35;5.13;;;2.53;;
79135;SDS011;68533;51.090;17.216;2023-10-13T01:27:01;5.88;;;2.28;;
79135;SDS011;68533;51.090;17.216;2023-10-13T01:29:44;4.45;;;2.47;;
79135;SDS011;68533;51.090;17.216;2023-10-13T01:32:31;2.33;;;1.85;;
79135;SDS011;68533;51.090;17.216;2023-10-13T01:34:57;6.32;;;2.72;;
79135;SDS011;68533;51.090;17.216;2023-10-13T01:37:31;2.53;;;1.63;;
79135;SDS011;68533;51.090;17.216;2023-10-13T01:39:57;4.47;;;3.08;;
79135;SDS011;68533;51.090;17.216;2023-10-13T01:42:23;6.10;;;3.10;;
79135;SDS011;68533;51.090;17.216;2023-10-13T01:44:50;5.97;;;2.30;;
79135;SDS011;68533;51.090;17.216;2023-10-13T01:47:17;3.00;;;2.08;;
79135;SDS011;68533;51.090;17.216;2023-10-13T01:49:43;5.07;;;2.70;;
79135;SDS011;68533;51.090;17.216;2023-10-13T01:52:15;4.78;;;2.88;;
79135;SDS011;68533;51.090;17.216;2023-10-13T01:54:42;7.22;;;3.25;;
79135;SDS011;68533;51.090;17.216;2023-10-13T01:57:11;6.38;;;2.63;;
79135;SDS011;68533;51.090;17.216;2023-10-13T01:59:43;3.17;;;2.47;;
79135;SDS011;68533;51.090;17.216;2023-10-13T02:02:10;3.42;;;2.28;;
79135;SDS011;68533;51.090;17.216;2023-10-13T02:04:40;8.68;;;2.65;;
79135;SDS011;68533;51.090;17.216;2023-10-13T02:07:21;7.28;;;3.40;;
79135;SDS011;68533;51.090;17.216;2023-10-13T02:09:51;8.60;;;2.33;;
79135;SDS011;68533;51.090;17.216;2023-10-13T02:12:20;3.35;;;3.03;;
79135;SDS011;68533;51.090;17.216;2023-10-13T02:14:53;2.80;;;1.70;;
79135;SDS011;68533;51.090;17.216;2023-10-13T02:17:19;8.60;;;2.88;;
79135;SDS011;68533;51.090;17.216;2023-10-13T02:19:46;5.70;;;2.33;;
79135;SDS011;68533;51.090;17.216;2023-10-13T02:22:13;4.05;;;2.65;;
79135;SDS011;68533;51.090;17.216;2023-10-13T02:24:58;3.90;;;2.45;;
79135;SDS011;68533;51.090;17.216;2023-10-13T02:27:34;4.75;;;2.72;;
79135;SDS011;68533;51.090;17.216;2023-10-13T02:30:07;3.47;;;2.28;;
79135;SDS011;68533;51.090;17.216;2023-10-13T02:32:39;6.18;;;2.08;;
79135;SDS011;68533;51.090;17.216;2023-10-13T02:35:09;8.23;;;2.88;;
79135;SDS011;68533;51.090;17.216;2023-10-13T02:37:41;7.28;;;3.08;;
79135;SDS011;68533;51.090;17.216;2023-10-13T02:40:19;4.60;;;2.67;;
79135;SDS011;68533;51.090;17.216;2023-10-13T02:42:49;4.82;;;2.97;;
79135;SDS011;68533;51.090;17.216;2023-10-13T02:45:15;2.60;;;2.40;;
79135;SDS011;68533;51.090;17.216;2023-10-13T02:47:41;5.13;;;2.75;;
79135;SDS011;68533;51.090;17.216;2023-10-13T02:50:09;4.20;;;2.53;;
79135;SDS011;68533;51.090;17.216;2023-10-13T02:52:38;3.80;;;2.08;;
79135;SDS011;68533;51.090;17.216;2023-10-13T02:55:07;7.57;;;2.47;;
79135;SDS011;68533;51.090;17.216;2023-10-13T02:57:40;4.57;;;2.78;;
79135;SDS011;68533;51.090;17.216;2023-10-13T03:00:07;4.13;;;2.22;;
79135;SDS011;68533;51.090;17.216;2023-10-13T03:02:41;5.20;;;2.70;;
79135;SDS011;68533;51.090;17.216;2023-10-13T03:05:11;3.97;;;2.40;;
79135;SDS011;68533;51.090;17.216;2023-10-13T03:07:39;7.53;;;3.78;;
79135;SDS011;68533;51.090;17.216;2023-10-13T03:10:09;5.13;;;3.00;;
79135;SDS011;68533;51.090;17.216;2023-10-13T03:12:36;5.00;;;2.92;;
79135;SDS011;68533;51.090;17.216;2023-10-13T03:15:03;4.40;;;2.22;;
79135;SDS011;68533;51.090;17.216;2023-10-13T03:17:42;3.25;;;2.28;;
79135;SDS011;68533;51.090;17.216;2023-10-13T03:20:12;4.63;;;2.40;;
79135;SDS011;68533;51.090;17.216;2023-10-13T03:22:44;5.55;;;2.53;;
79135;SDS011;68533;51.090;17.216;2023-10-13T03:25:13;7.50;;;2.55;;
79135;SDS011;68533;51.090;17.216;2023-10-13T03:27:55;6.57;;;2.85;;
79135;SDS011;68533;51.090;17.216;2023-10-13T03:30:22;5.53;;;2.35;;
79135;SDS011;68533;51.090;17.216;2023-10-13T03:32:56;4.10;;;2.85;;
79135;SDS011;68533;51.090;17.216;2023-10-13T03:35:22;5.63;;;2.90;;
79135;SDS011;68533;51.090;17.216;2023-10-13T03:37:57;4.80;;;2.85;;
79135;SDS011;68533;51.090;17.216;2023-10-13T03:40:23;3.22;;;2.35;;
79135;SDS011;68533;51.090;17.216;2023-10-13T03:42:51;5.43;;;2.88;;
79135;SDS011;68533;51.090;17.216;2023-10-13T03:45:36;5.88;;;3.03;;
79135;SDS011;68533;51.090;17.216;2023-10-13T03:48:10;3.88;;;2.72;;
79135;SDS011;68533;51.090;17.216;2023-10-13T03:50:52;5.97;;;2.22;;
79135;SDS011;68533;51.090;17.216;2023-10-13T03:53:41;4.50;;;2.83;;
79135;SDS011;68533;51.090;17.216;2023-10-13T03:56:21;8.95;;;2.50;;
79135;SDS011;68533;51.090;17.216;2023-10-13T03:59:05;3.90;;;2.17;;
79135;SDS011;68533;51.090;17.216;2023-10-13T04:01:38;3.88;;;2.47;;
79135;SDS011;68533;51.090;17.216;2023-10-13T04:04:23;4.40;;;2.85;;
79135;SDS011;68533;51.090;17.216;2023-10-13T04:07:27;5.18;;;2.90;;
79135;SDS011;68533;51.090;17.216;2023-10-13T04:10:17;7.43;;;3.30;;
79135;SDS011;68533;51.090;17.216;2023-10-13T04:13:09;3.78;;;2.80;;
79135;SDS011;68533;51.090;17.216;2023-10-13T04:15:54;5.63;;;3.08;;
79135;SDS011;68533;51.090;17.216;2023-10-13T04:18:38;4.00;;;2.55;;
79135;SDS011;68533;51.090;17.216;2023-10-13T04:21:23;3.70;;;1.92;;
79135;SDS011;68533;51.090;17.216;2023-10-13T04:24:15;6.03;;;3.30;;
79135;SDS011;68533;51.090;17.216;2023-10-13T04:26:44;5.95;;;2.78;;
79135;SDS011;68533;51.090;17.216;2023-10-13T04:29:29;6.90;;;2.78;;
79135;SDS011;68533;51.090;17.216;2023-10-13T04:32:14;4.15;;;2.45;;
79135;SDS011;68533;51.090;17.216;2023-10-13T04:34:41;5.80;;;3.45;;
79135;SDS011;68533;51.090;17.216;2023-10-13T04:37:17;4.80;;;2.42;;
79135;SDS011;68533;51.090;17.216;2023-10-13T04:40:08;6.78;;;2.67;;
79135;SDS011;68533;51.090;17.216;2023-10-13T04:42:36;10.40;;;2.85;;
79135;SDS011;68533;51.090;17.216;2023-10-13T04:45:16;6.13;;;2.90;;
79135;SDS011;68533;51.090;17.216;2023-10-13T04:47:59;10.13;;;4.32;;
79135;SDS011;68533;51.090;17.216;2023-10-13T04:50:48;3.72;;;2.72;;
79135;SDS011;68533;51.090;17.216;2023-10-13T04:53:24;3.88;;;2.28;;
79135;SDS011;68533;51.090;17.216;2023-10-13T04:55:54;4.63;;;3.55;;
79135;SDS011;68533;51.090;17.216;2023-10-13T04:58:39;3.38;;;2.13;;
79135;SDS011;68533;51.090;17.216;2023-10-13T05:01:28;4.97;;;3.03;;
79135;SDS011;68533;51.090;17.216;2023-10-13T05:03:54;6.90;;;2.65;;
79135;SDS011;68533;51.090;17.216;2023-10-13T05:06:39;4.93;;;2.40;;
79135;SDS011;68533;51.090;17.216;2023-10-13T05:09:07;3.03;;;2.05;;
79135;SDS011;68533;51.090;17.216;2023-10-13T05:11:52;4.80;;;3.10;;
79135;SDS011;68533;51.090;17.216;2023-10-13T05:14:38;5.45;;;2.40;;
79135;SDS011;68533;51.090;17.216;2023-10-13T05:17:22;4.30;;;2.00;;
79135;SDS011;68533;51.090;17.216;2023-10-13T05:20:08;3.50;;;1.90;;
79135;SDS011;68533;51.090;17.216;2023-10-13T05:22:53;4.38;;;2.53;;
79135;SDS011;68533;51.090;17.216;2023-10-13T05:25:37;5.32;;;2.67;;
79135;SDS011;68533;51.090;17.216;2023-10-13T05:28:22;3.10;;;1.73;;
79135;SDS011;68533;51.090;17.216;2023-10-13T05:31:07;7.22;;;2.30;;
79135;SDS011;68533;51.090;17.216;2023-10-13T05:33:52;7.72;;;3.33;;
79135;SDS011;68533;51.090;17.216;2023-10-13T05:36:38;7.80;;;3.00;;
79135;SDS011;68533;51.090;17.216;2023-10-13T05:39:23;5.63;;;2.75;;
79135;SDS011;68533;51.090;17.216;2023-10-13T05:42:08;4.97;;;4.22;;
79135;SDS011;68533;51.090;17.216;2023-10-13T05:44:54;5.05;;;3.97;;
79135;SDS011;68533;51.090;17.216;2023-10-13T05:47:39;5.13;;;2.70;;
79135;SDS011;68533;51.090;17.216;2023-10-13T05:50:06;5.03;;;3.03;;
79135;SDS011;68533;51.090;17.216;2023-10-13T05:52:45;5.00;;;2.92;;
79135;SDS011;68533;51.090;17.216;2023-10-13T05:55:27;6.93;;;3.53;;
79135;SDS011;68533;51.090;17.216;2023-10-13T05:58:13;4.57;;;3.00;;
79135;SDS011;68533;51.090;17.216;2023-10-13T06:00:58;3.53;;;2.83;;
79135;SDS011;68533;51.090;17.216;2023-10-13T06:03:43;5.18;;;4.00;;
79135;SDS011;68533;51.090;17.216;2023-10-13T06:06:27;7.57;;;4.53;;
79135;SDS011;68533;51.090;17.216;2023-10-13T06:09:12;8.13;;;4.90;;
79135;SDS011;68533;51.090;17.216;2023-10-13T06:11:57;7.05;;;4.40;;
79135;SDS011;68533;51.090;17.216;2023-10-13T06:14:45;10.00;;;3.72;;
79135;SDS011;68533;51.090;17.216;2023-10-13T06:17:30;8.20;;;4.38;;
79135;SDS011;68533;51.090;17.216;2023-10-13T06:20:15;7.45;;;3.28;;
79135;SDS011;68533;51.090;17.216;2023-10-13T06:22:59;7.60;;;4.13;;
79135;SDS011;68533;51.090;17.216;2023-10-13T06:25:50;6.03;;;3.20;;
79135;SDS011;68533;51.090;17.216;2023-10-13T06:28:35;4.63;;;2.90;;
79135;SDS011;68533;51.090;17.216;2023-10-13T06:31:08;8.98;;;3.85;;
79135;SDS011;68533;51.090;17.216;2023-10-13T06:33:47;6.28;;;3.67;;
79135;SDS011;68533;51.090;17.216;2023-10-13T06:36:14;7.60;;;3.33;;
79135;SDS011;68533;51.090;17.216;2023-10-13T06:38:41;4.20;;;2.45;;
79135;SDS011;68533;51.090;17.216;2023-10-13T06:41:08;4.85;;;3.20;;
79135;SDS011;68533;51.090;17.216;2023-10-13T06:43:34;5.50;;;3.55;;
79135;SDS011;68533;51.090;17.216;2023-10-13T06:46:09;6.55;;;3.38;;
79135;SDS011;68533;51.090;17.216;2023-10-13T06:48:40;4.97;;;3.25;;
79135;SDS011;68533;51.090;17.216;2023-10-13T06:51:07;7.05;;;3.97;;
79135;SDS011;68533;51.090;17.216;2023-10-13T06:53:48;3.55;;;2.67;;
79135;SDS011;68533;51.090;17.216;2023-10-13T06:56:16;4.57;;;3.13;;
79135;SDS011;68533;51.090;17.216;2023-10-13T06:58:53;5.95;;;2.88;;
79135;SDS011;68533;51.090;17.216;2023-10-13T07:01:30;10.98;;;3.90;;
79135;SDS011;68533;51.090;17.216;2023-10-13T07:04:08;6.05;;;3.20;;
79135;SDS011;68533;51.090;17.216;2023-10-13T07:06:42;6.20;;;3.08;;
79135;SDS011;68533;51.090;17.216;2023-10-13T07:09:16;6.28;;;3.28;;
79135;SDS011;68533;51.090;17.216;2023-10-13T07:12:04;7.63;;;4.20;;
79135;SDS011;68533;51.090;17.216;2023-10-13T07:14:50;6.20;;;3.25;;
79135;SDS011;68533;51.090;17.216;2023-10-13T07:17:24;6.03;;;3.22;;
79135;SDS011;68533;51.090;17.216;2023-10-13T07:19:54;8.80;;;3.30;;
79135;SDS011;68533;51.090;17.216;2023-10-13T07:22:31;8.10;;;3.55;;
79135;SDS011;68533;51.090;17.216;2023-10-13T07:25:05;7.18;;;3.72;;
79135;SDS011;68533;51.090;17.216;2023-10-13T07:27:34;8.70;;;3.90;;
79135;SDS011;68533;51.090;17.216;2023-10-13T07:30:01;6.32;;;3.65;;
79135;SDS011;68533;51.090;17.216;2023-10-13T07:32:40;5.20;;;3.45;;
79135;SDS011;68533;51.090;17.216;2023-10-13T07:35:17;4.78;;;3.67;;
79135;SDS011;68533;51.090;17.216;2023-10-13T07:37:48;7.13;;;3.80;;
79135;SDS011;68533;51.090;17.216;2023-10-13T07:40:18;6.35;;;3.25;;
79135;SDS011;68533;51.090;17.216;2023-10-13T07:43:04;5.80;;;3.55;;
79135;SDS011;68533;51.090;17.216;2023-10-13T07:45:35;7.10;;;3.90;;
79135;SDS011;68533;51.090;17.216;2023-10-13T07:48:04;10.07;;;4.30;;
79135;SDS011;68533;51.090;17.216;2023-10-13T07:51:01;7.35;;;4.03;;
79135;SDS011;68533;51.090;17.216;2023-10-13T07:53:29;6.07;;;4.22;;
79135;SDS011;68533;51.090;17.216;2023-10-13T07:56:02;7.18;;;3.70;;
79135;SDS011;68533;51.090;17.216;2023-10-13T07:58:31;8.30;;;4.10;;
79135;SDS011;68533;51.090;17.216;2023-10-13T08:00:57;6.93;;;3.80;;
79135;SDS011;68533;51.090;17.216;2023-10-13T08:03:34;8.25;;;3.90;;
79135;SDS011;68533;51.090;17.216;2023-10-13T08:06:15;7.53;;;4.13;;
79135;SDS011;68533;51.090;17.216;2023-10-13T08:08:42;5.70;;;3.67;;
79135;SDS011;68533;51.090;17.216;2023-10-13T08:11:13;5.32;;;3.72;;
79135;SDS011;68533;51.090;17.216;2023-10-13T08:14:00;6.70;;;3.63;;
79135;SDS011;68533;51.090;17.216;2023-10-13T08:16:45;5.68;;;3.53;;
79135;SDS011;68533;51.090;17.216;2023-10-13T08:19:28;5.55;;;3.78;;
79135;SDS011;68533;51.090;17.216;2023-10-13T08:22:13;6.72;;;3.17;;
79135;SDS011;68533;51.090;17.216;2023-10-13T08:27:14;4.78;;;3.47;;
79135;SDS011;68533;51.090;17.216;2023-10-13T08:30:01;6.10;;;3.88;;
79135;SDS011;68533;51.090;17.216;2023-10-13T08:32:28;5.43;;;2.92;;
79135;SDS011;68533;51.090;17.216;2023-10-13T08:34:58;7.25;;;3.80;;
79135;SDS011;68533;51.090;17.216;2023-10-13T08:37:35;4.18;;;2.95;;
79135;SDS011;68533;51.090;17.216;2023-10-13T08:40:23;4.88;;;2.85;;
79135;SDS011;68533;51.090;17.216;2023-10-13T08:43:09;6.68;;;3.55;;
79135;SDS011;68533;51.090;17.216;2023-10-13T08:45:41;6.90;;;4.13;;
79135;SDS011;68533;51.090;17.216;2023-10-13T08:48:08;7.32;;;3.83;;
79135;SDS011;68533;51.090;17.216;2023-10-13T08:50:43;5.95;;;2.97;;
79135;SDS011;68533;51.090;17.216;2023-10-13T08:53:25;9.63;;;3.15;;
79135;SDS011;68533;51.090;17.216;2023-10-13T08:55:55;3.38;;;2.95;;
79135;SDS011;68533;51.090;17.216;2023-10-13T08:58:32;4.88;;;3.45;;
79135;SDS011;68533;51.090;17.216;2023-10-13T09:01:27;5.07;;;3.30;;
79135;SDS011;68533;51.090;17.216;2023-10-13T09:09:48;3.15;;;2.47;;
79135;SDS011;68533;51.090;17.216;2023-10-13T09:14:53;4.38;;;2.25;;
79135;SDS011;68533;51.090;17.216;2023-10-13T09:17:26;3.28;;;2.28;;
79135;SDS011;68533;51.090;17.216;2023-10-13T09:20:06;2.88;;;2.40;;
79135;SDS011;68533;51.090;17.216;2023-10-13T09:22:51;2.85;;;2.38;;
79135;SDS011;68533;51.090;17.216;2023-10-13T09:25:30;3.58;;;3.03;;
79135;SDS011;68533;51.090;17.216;2023-10-13T09:30:44;2.78;;;1.83;;
79135;SDS011;68533;51.090;17.216;2023-10-13T09:33:11;2.78;;;2.17;;
79135;SDS011;68533;51.090;17.216;2023-10-13T09:35:44;2.72;;;1.85;;
79135;SDS011;68533;51.090;17.216;2023-10-13T09:38:19;10.23;;;2.55;;
79135;SDS011;68533;51.090;17.216;2023-10-13T09:40:46;3.17;;;1.63;;
79135;SDS011;68533;51.090;17.216;2023-10-13T09:43:16;3.72;;;2.78;;
79135;SDS011;68533;51.090;17.216;2023-10-13T09:45:45;2.90;;;2.25;;
79135;SDS011;68533;51.090;17.216;2023-10-13T09:48:36;3.90;;;2.33;;
79135;SDS011;68533;51.090;17.216;2023-10-13T09:51:12;3.75;;;2.05;;
79135;SDS011;68533;51.090;17.216;2023-10-13T09:53:40;3.58;;;2.00;;
79135;SDS011;68533;51.090;17.216;2023-10-13T09:56:15;3.25;;;2.63;;
79135;SDS011;68533;51.090;17.216;2023-10-13T09:59:11;5.13;;;2.63;;
79135;SDS011;68533;51.090;17.216;2023-10-13T10:01:47;5.10;;;2.22;;
79135;SDS011;68533;51.090;17.216;2023-10-13T10:04:16;6.13;;;2.88;;
79135;SDS011;68533;51.090;17.216;2023-10-13T10:06:54;4.93;;;3.13;;
79135;SDS011;68533;51.090;17.216;2023-10-13T10:09:33;3.35;;;1.67;;
79135;SDS011;68533;51.090;17.216;2023-10-13T10:17:59;2.92;;;1.77;;
79135;SDS011;68533;51.090;17.216;2023-10-13T10:20:30;2.65;;;1.80;;
79135;SDS011;68533;51.090;17.216;2023-10-13T10:23:25;3.63;;;1.63;;
79135;SDS011;68533;51.090;17.216;2023-10-13T10:25:54;4.25;;;2.05;;
79135;SDS011;68533;51.090;17.216;2023-10-13T10:28:37;3.58;;;2.55;;
79135;SDS011;68533;51.090;17.216;2023-10-13T10:31:06;3.40;;;2.00;;
79135;SDS011;68533;51.090;17.216;2023-10-13T10:33:47;2.75;;;1.83;;
79135;SDS011;68533;51.090;17.216;2023-10-13T10:36:17;2.65;;;1.50;;
79135;SDS011;68533;51.090;17.216;2023-10-13T10:38:55;2.95;;;2.05;;
79135;SDS011;68533;51.090;17.216;2023-10-13T10:41:27;1.40;;;1.30;;
79135;SDS011;68533;51.090;17.216;2023-10-13T10:44:13;3.05;;;1.65;;
79135;SDS011;68533;51.090;17.216;2023-10-13T10:46:48;3.03;;;1.80;;
79135;SDS011;68533;51.090;17.216;2023-10-13T10:49:22;3.00;;;1.95;;
79135;SDS011;68533;51.090;17.216;2023-10-13T10:51:59;2.92;;;1.73;;
79135;SDS011;68533;51.090;17.216;2023-10-13T10:54:32;2.17;;;1.40;;
79135;SDS011;68533;51.090;17.216;2023-10-13T10:57:01;2.53;;;1.40;;
79135;SDS011;68533;51.090;17.216;2023-10-13T10:59:39;3.05;;;1.48;;
79135;SDS011;68533;51.090;17.216;2023-10-13T11:02:09;1.63;;;1.25;;
79135;SDS011;68533;51.090;17.216;2023-10-13T11:04:40;1.17;;;1.05;;
79135;SDS011;68533;51.090;17.216;2023-10-13T11:07:22;2.03;;;0.95;;
79135;SDS011;68533;51.090;17.216;2023-10-13T11:09:51;2.45;;;1.70;;
79135;SDS011;68533;51.090;17.216;2023-10-13T11:12:32;1.20;;;1.10;;
79135;SDS011;68533;51.090;17.216;2023-10-13T11:15:00;1.42;;;1.10;;
79135;SDS011;68533;51.090;17.216;2023-10-13T11:17:28;1.88;;;1.50;;
79135;SDS011;68533;51.090;17.216;2023-10-13T11:20:19;1.42;;;1.00;;
79135;SDS011;68533;51.090;17.216;2023-10-13T11:23:00;1.70;;;1.35;;
79135;SDS011;68533;51.090;17.216;2023-10-13T11:25:30;2.58;;;1.40;;
79135;SDS011;68533;51.090;17.216;2023-10-13T11:28:10;3.13;;;2.22;;
79135;SDS011;68533;51.090;17.216;2023-10-13T11:30:46;2.88;;;1.42;;
79135;SDS011;68533;51.090;17.216;2023-10-13T11:33:17;2.90;;;1.63;;
79135;SDS011;68533;51.090;17.216;2023-10-13T11:35:46;1.95;;;1.40;;
79135;SDS011;68533;51.090;17.216;2023-10-13T11:40:59;2.63;;;1.85;;
79135;SDS011;68533;51.090;17.216;2023-10-13T11:46:31;2.22;;;1.10;;
79135;SDS011;68533;51.090;17.216;2023-10-13T11:49:03;5.90;;;1.40;;
79135;SDS011;68533;51.090;17.216;2023-10-13T11:51:44;1.20;;;0.95;;
79135;SDS011;68533;51.090;17.216;2023-10-13T11:54:19;1.42;;;1.15;;
79135;SDS011;68533;51.090;17.216;2023-10-13T11:59:15;1.65;;;1.20;;
79135;SDS011;68533;51.090;17.216;2023-10-13T12:01:45;1.58;;;1.20;;
79135;SDS011;68533;51.090;17.216;2023-10-13T12:04:33;2.35;;;1.30;;
79135;SDS011;68533;51.090;17.216;2023-10-13T12:07:17;2.47;;;1.50;;
79135;SDS011;68533;51.090;17.216;2023-10-13T12:10:11;2.72;;;1.50;;
79135;SDS011;68533;51.090;17.216;2023-10-13T12:12:55;1.63;;;1.30;;
79135;SDS011;68533;51.090;17.216;2023-10-13T12:15:24;1.75;;;1.20;;
79135;SDS011;68533;51.090;17.216;2023-10-13T12:18:02;1.27;;;1.08;;
79135;SDS011;68533;51.090;17.216;2023-10-13T12:20:29;1.67;;;1.30;;
79135;SDS011;68533;51.090;17.216;2023-10-13T12:23:08;1.48;;;1.33;;
79135;SDS011;68533;51.090;17.216;2023-10-13T12:25:41;4.45;;;1.90;;
79135;SDS011;68533;51.090;17.216;2023-10-13T12:28:20;4.93;;;1.17;;
79135;SDS011;68533;51.090;17.216;2023-10-13T12:30:50;4.65;;;1.48;;
79135;SDS011;68533;51.090;17.216;2023-10-13T12:33:23;2.88;;;1.40;;
79135;SDS011;68533;51.090;17.216;2023-10-13T12:36:01;2.30;;;1.30;;
79135;SDS011;68533;51.090;17.216;2023-10-13T12:38:39;1.02;;;0.90;;
79135;SDS011;68533;51.090;17.216;2023-10-13T12:41:15;2.20;;;1.00;;
79135;SDS011;68533;51.090;17.216;2023-10-13T12:44:00;1.05;;;0.90;;
79135;SDS011;68533;51.090;17.216;2023-10-13T12:46:45;2.47;;;1.13;;
79135;SDS011;68533;51.090;17.216;2023-10-13T12:49:32;1.48;;;1.00;;
79135;SDS011;68533;51.090;17.216;2023-10-13T12:52:25;3.40;;;0.90;;
79135;SDS011;68533;51.090;17.216;2023-10-13T12:54:51;1.25;;;1.05;;
79135;SDS011;68533;51.090;17.216;2023-10-13T12:57:24;1.70;;;1.25;;
79135;SDS011;68533;51.090;17.216;2023-10-13T12:59:53;3.10;;;1.40;;
79135;SDS011;68533;51.090;17.216;2023-10-13T13:02:20;1.23;;;0.80;;
79135;SDS011;68533;51.090;17.216;2023-10-13T13:04:47;1.55;;;0.90;;
79135;SDS011;68533;51.090;17.216;2023-10-13T13:07:20;1.95;;;0.82;;
79135;SDS011;68533;51.090;17.216;2023-10-13T13:09:46;1.73;;;1.23;;
79135;SDS011;68533;51.090;17.216;2023-10-13T13:12:12;1.58;;;0.82;;
79135;SDS011;68533;51.090;17.216;2023-10-13T13:14:38;1.63;;;1.08;;
79135;SDS011;68533;51.090;17.216;2023-10-13T13:17:07;2.03;;;1.15;;
79135;SDS011;68533;51.090;17.216;2023-10-13T13:19:33;1.73;;;0.73;;
79135;SDS011;68533;51.090;17.216;2023-10-13T13:22:10;1.27;;;0.77;;
79135;SDS011;68533;51.090;17.216;2023-10-13T13:24:41;2.55;;;0.75;;
79135;SDS011;68533;51.090;17.216;2023-10-13T13:27:13;2.35;;;0.77;;
79135;SDS011;68533;51.090;17.216;2023-10-13T13:29:45;1.00;;;0.90;;
79135;SDS011;68533;51.090;17.216;2023-10-13T13:32:12;1.33;;;0.85;;
79135;SDS011;68533;51.090;17.216;2023-10-13T13:34:50;1.65;;;0.95;;
79135;SDS011;68533;51.090;17.216;2023-10-13T13:37:30;2.50;;;0.77;;
79135;SDS011;68533;51.090;17.216;2023-10-13T13:39:59;2.20;;;0.88;;
79135;SDS011;68533;51.090;17.216;2023-10-13T13:42:42;1.17;;;0.82;;
79135;SDS011;68533;51.090;17.216;2023-10-13T13:45:12;1.55;;;0.93;;
79135;SDS011;68533;51.090;17.216;2023-10-13T13:47:50;1.35;;;0.90;;
79135;SDS011;68533;51.090;17.216;2023-10-13T13:50:21;2.30;;;1.10;;
79135;SDS011;68533;51.090;17.216;2023-10-13T13:52:56;3.50;;;0.88;;
79135;SDS011;68533;51.090;17.216;2023-10-13T13:55:22;1.77;;;0.98;;
79135;SDS011;68533;51.090;17.216;2023-10-13T13:57:49;1.65;;;1.20;;
79135;SDS011;68533;51.090;17.216;2023-10-13T14:00:16;1.90;;;0.80;;
79135;SDS011;68533;51.090;17.216;2023-10-13T14:02:49;2.15;;;1.02;;
79135;SDS011;68533;51.090;17.216;2023-10-13T14:05:15;1.23;;;0.88;;
79135;SDS011;68533;51.090;17.216;2023-10-13T14:07:44;1.52;;;0.85;;
79135;SDS011;68533;51.090;17.216;2023-10-13T14:10:15;1.42;;;0.52;;
79135;SDS011;68533;51.090;17.216;2023-10-13T14:13:00;1.02;;;0.52;;
79135;SDS011;68533;51.090;17.216;2023-10-13T14:15:38;1.40;;;1.00;;
79135;SDS011;68533;51.090;17.216;2023-10-13T14:18:10;2.90;;;1.13;;
79135;SDS011;68533;51.090;17.216;2023-10-13T14:20:43;3.45;;;0.98;;
79135;SDS011;68533;51.090;17.216;2023-10-13T14:23:10;2.88;;;0.85;;
79135;SDS011;68533;51.090;17.216;2023-10-13T14:25:40;1.67;;;0.52;;
79135;SDS011;68533;51.090;17.216;2023-10-13T14:28:10;1.30;;;0.82;;
79135;SDS011;68533;51.090;17.216;2023-10-13T14:30:43;1.30;;;1.20;;
79135;SDS011;68533;51.090;17.216;2023-10-13T14:33:10;1.55;;;0.90;;
79135;SDS011;68533;51.090;17.216;2023-10-13T14:35:36;1.33;;;0.73;;
79135;SDS011;68533;51.090;17.216;2023-10-13T14:38:03;1.52;;;0.90;;
79135;SDS011;68533;51.090;17.216;2023-10-13T14:40:29;1.15;;;0.68;;
79135;SDS011;68533;51.090;17.216;2023-10-13T14:42:55;1.35;;;0.60;;
79135;SDS011;68533;51.090;17.216;2023-10-13T14:45:23;1.75;;;1.00;;
79135;SDS011;68533;51.090;17.216;2023-10-13T14:47:49;0.98;;;0.70;;
79135;SDS011;68533;51.090;17.216;2023-10-13T14:50:18;2.10;;;1.13;;
79135;SDS011;68533;51.090;17.216;2023-10-13T14:52:47;3.22;;;1.35;;
79135;SDS011;68533;51.090;17.216;2023-10-13T14:55:14;3.17;;;1.08;;
79135;SDS011;68533;51.090;17.216;2023-10-13T14:57:47;3.22;;;1.30;;
79135;SDS011;68533;51.090;17.216;2023-10-13T15:00:16;3.05;;;1.25;;
79135;SDS011;68533;51.090;17.216;2023-10-13T15:02:53;2.78;;;1.02;;
79135;SDS011;68533;51.090;17.216;2023-10-13T15:05:22;1.55;;;1.10;;
79135;SDS011;68533;51.090;17.216;2023-10-13T15:07:49;0.98;;;0.98;;
79135;SDS011;68533;51.090;17.216;2023-10-13T15:10:17;2.35;;;1.02;;
79135;SDS011;68533;51.090;17.216;2023-10-13T15:12:43;1.58;;;0.95;;
79135;SDS011;68533;51.090;17.216;2023-10-13T15:15:13;2.40;;;1.02;;
79135;SDS011;68533;51.090;17.216;2023-10-13T15:17:40;1.88;;;1.13;;
79135;SDS011;68533;51.090;17.216;2023-10-13T15:20:06;6.97;;;1.40;;
79135;SDS011;68533;51.090;17.216;2023-10-13T15:22:44;1.85;;;0.90;;
79135;SDS011;68533;51.090;17.216;2023-10-13T15:25:15;8.02;;;1.30;;
79135;SDS011;68533;51.090;17.216;2023-10-13T15:28:03;1.27;;;0.80;;
79135;SDS011;68533;51.090;17.216;2023-10-13T15:30:39;3.90;;;2.10;;
79135;SDS011;68533;51.090;17.216;2023-10-13T15:33:20;1.85;;;0.85;;
79135;SDS011;68533;51.090;17.216;2023-10-13T15:35:47;5.47;;;1.30;;
79135;SDS011;68533;51.090;17.216;2023-10-13T15:38:14;4.07;;;1.70;;
79135;SDS011;68533;51.090;17.216;2023-10-13T15:40:43;2.28;;;1.23;;
79135;SDS011;68533;51.090;17.216;2023-10-13T15:43:10;2.20;;;1.35;;
79135;SDS011;68533;51.090;17.216;2023-10-13T15:45:37;2.40;;;1.27;;
79135;SDS011;68533;51.090;17.216;2023-10-13T15:48:08;2.35;;;1.27;;